createdAt,value
2023-05-19T00:00:54.002Z,3.57
2023-05-19T00:05:06.292Z,2.60
2023-05-19T00:09:18.390Z,3.00
2023-05-19T00:13:30.378Z,3.07
2023-05-19T00:17:42.546Z,3.07
2023-05-19T00:21:54.279Z,2.90
2023-05-19T00:26:06.149Z,3.57
2023-05-19T00:30:17.929Z,2.80
2023-05-19T00:34:29.660Z,2.80
2023-05-19T00:38:41.381Z,2.70
2023-05-19T00:42:53.075Z,2.90
2023-05-19T00:47:04.976Z,2.77
2023-05-19T00:51:17.370Z,3.17
2023-05-19T00:55:31.727Z,3.47
2023-05-19T00:59:44.049Z,2.87
2023-05-19T01:03:59.222Z,2.80
2023-05-19T01:08:11.160Z,3.20
2023-05-19T01:12:22.927Z,3.63
2023-05-19T01:16:40.636Z,2.90
2023-05-19T01:21:10.730Z,3.30
2023-05-19T01:25:42.761Z,3.50
2023-05-19T01:30:09.571Z,3.23
2023-05-19T01:34:23.632Z,3.40
2023-05-19T01:38:38.312Z,3.10
2023-05-19T01:42:52.539Z,3.43
2023-05-19T01:47:05.126Z,3.70
2023-05-19T01:51:17.131Z,3.87
2023-05-19T01:55:29.316Z,3.90
2023-05-19T02:00:13.761Z,3.47
2023-05-19T02:04:56.215Z,3.97
2023-05-19T02:09:26.228Z,3.60
2023-05-19T02:13:42.291Z,3.87
2023-05-19T02:17:58.180Z,3.70
2023-05-19T02:22:09.953Z,3.43
2023-05-19T02:26:21.805Z,3.50
2023-05-19T02:30:33.869Z,3.70
2023-05-19T02:34:45.725Z,3.87
2023-05-19T02:38:57.866Z,4.07
2023-05-19T02:43:09.526Z,3.93
2023-05-19T02:47:21.362Z,4.00
2023-05-19T02:51:33.089Z,4.10
2023-05-19T02:55:44.788Z,4.07
2023-05-19T02:59:56.633Z,4.37
2023-05-19T03:04:08.462Z,4.60
2023-05-19T03:08:20.576Z,4.00
2023-05-19T03:12:33.611Z,4.47
2023-05-19T03:16:45.647Z,4.20
2023-05-19T03:20:57.609Z,4.50
2023-05-19T03:25:10.519Z,4.77
2023-05-19T03:29:22.618Z,4.50
2023-05-19T03:33:35.286Z,4.40
2023-05-19T03:37:47.121Z,4.47
2023-05-19T03:41:59.292Z,4.93
2023-05-19T03:46:11.186Z,4.60
2023-05-19T03:50:34.223Z,4.37
2023-05-19T03:54:57.827Z,4.07
2023-05-19T03:59:12.312Z,4.37
2023-05-19T04:03:26.081Z,4.80
2023-05-19T04:07:38.257Z,5.00
2023-05-19T04:11:50.125Z,4.03
2023-05-19T04:16:03.016Z,4.70
2023-05-19T04:20:14.835Z,4.23
2023-05-19T04:24:26.511Z,4.37
2023-05-19T04:28:40.147Z,4.73
2023-05-19T04:32:52.115Z,4.40
2023-05-19T04:37:04.335Z,4.43
2023-05-19T04:41:16.591Z,4.43
2023-05-19T04:45:28.788Z,4.20
2023-05-19T04:49:43.969Z,4.30
2023-05-19T04:53:56.070Z,4.17
2023-05-19T04:58:08.004Z,3.90
2023-05-19T05:02:20.191Z,3.47
2023-05-19T05:06:32.358Z,3.28
2023-05-19T05:10:44.174Z,2.85
2023-05-19T05:26:05.196Z,3.03
2023-05-19T05:30:17.042Z,2.67
2023-05-19T05:34:29.008Z,2.78
2023-05-19T05:38:40.870Z,3.13
2023-05-19T05:42:53.062Z,2.90
2023-05-19T05:47:07.450Z,3.05
2023-05-19T05:51:22.829Z,2.67
2023-05-19T05:55:35.478Z,2.50
2023-05-19T05:59:47.811Z,2.25
2023-05-19T06:04:00.449Z,2.40
2023-05-19T06:08:12.409Z,2.70
2023-05-19T06:12:24.243Z,2.20
2023-05-19T06:16:36.101Z,2.20
2023-05-19T06:20:48.063Z,2.70
2023-05-19T06:25:00.163Z,2.65
2023-05-19T06:29:11.948Z,1.88
2023-05-19T06:33:24.661Z,2.20
2023-05-19T06:37:38.360Z,1.98
2023-05-19T06:41:50.460Z,1.70
2023-05-19T06:46:22.143Z,2.00
2023-05-19T06:50:34.350Z,1.70
2023-05-19T06:54:46.506Z,2.28
2023-05-19T06:58:58.261Z,1.50
2023-05-19T07:03:16.430Z,1.67
2023-05-19T07:07:28.433Z,1.30
2023-05-19T07:11:41.714Z,1.70
2023-05-19T07:15:56.040Z,1.60
2023-05-19T07:20:12.271Z,2.08
2023-05-19T07:24:24.919Z,1.95
2023-05-19T07:28:38.159Z,1.98
2023-05-19T07:32:50.925Z,1.60
2023-05-19T07:37:03.437Z,1.70
2023-05-19T07:41:15.239Z,1.60
2023-05-19T07:45:27.013Z,1.60
2023-05-19T07:49:38.808Z,1.40
2023-05-19T07:53:51.470Z,1.50
2023-05-19T07:58:03.210Z,1.35
2023-05-19T08:02:14.959Z,1.23
2023-05-19T08:06:26.837Z,1.77
2023-05-19T08:10:38.677Z,1.65
2023-05-19T08:14:50.362Z,1.48
2023-05-19T08:19:04.849Z,1.42
2023-05-19T08:23:17.612Z,1.80
2023-05-19T08:27:30.010Z,1.42
2023-05-19T08:31:41.893Z,1.80
2023-05-19T08:35:55.423Z,1.73
2023-05-19T08:40:08.957Z,1.65
2023-05-19T08:44:20.815Z,1.60
2023-05-19T08:48:35.099Z,1.30
2023-05-19T08:53:01.539Z,1.40
2023-05-19T08:57:14.110Z,1.50
2023-05-19T09:01:28.942Z,1.30
2023-05-19T09:05:41.277Z,1.80
2023-05-19T09:09:53.065Z,2.03
2023-05-19T09:14:05.694Z,1.60
2023-05-19T09:18:17.422Z,1.40
2023-05-19T09:22:30.630Z,1.23
2023-05-19T09:26:43.026Z,1.25
2023-05-19T09:31:01.148Z,1.60
2023-05-19T09:35:13.976Z,1.27
2023-05-19T09:39:26.168Z,1.85
2023-05-19T09:43:37.952Z,1.38
2023-05-19T09:47:49.732Z,1.60
2023-05-19T09:52:04.906Z,1.65
2023-05-19T09:56:17.389Z,1.55
2023-05-19T10:00:31.331Z,1.38
2023-05-19T10:04:44.029Z,1.58
2023-05-19T10:08:57.188Z,1.30
2023-05-19T10:13:09.577Z,1.75
2023-05-19T10:17:22.206Z,1.60
2023-05-19T10:21:33.870Z,1.65
2023-05-19T10:25:46.260Z,1.63
2023-05-19T10:30:02.315Z,1.60
2023-05-19T10:34:21.952Z,1.50
2023-05-19T10:38:48.332Z,1.80
2023-05-19T10:43:41.374Z,1.60
2023-05-19T10:47:54.746Z,1.63
2023-05-19T10:52:23.314Z,1.38
2023-05-19T10:56:42.287Z,1.65
2023-05-19T11:01:00.973Z,1.40
2023-05-19T11:05:15.079Z,1.67
2023-05-19T11:09:37.959Z,2.13
2023-05-19T11:13:55.034Z,1.52
2023-05-19T11:18:07.552Z,1.65
2023-05-19T11:22:24.365Z,1.40
2023-05-19T11:26:45.674Z,1.25
2023-05-19T11:31:00.087Z,1.48
2023-05-19T11:35:12.101Z,1.75
2023-05-19T11:39:24.509Z,2.20
2023-05-19T11:43:36.246Z,1.85
2023-05-19T11:48:01.217Z,1.65
2023-05-19T11:52:14.479Z,1.40
2023-05-19T11:56:26.143Z,1.75
2023-05-19T12:00:42.868Z,1.70
2023-05-19T12:04:54.930Z,1.50
2023-05-19T12:09:07.453Z,1.48
2023-05-19T12:13:19.812Z,1.63
2023-05-19T12:17:32.677Z,1.45
2023-05-19T12:21:44.755Z,2.20
2023-05-19T12:26:00.993Z,1.80
2023-05-19T12:30:13.423Z,1.58
2023-05-19T12:34:25.135Z,2.08
2023-05-19T12:38:39.813Z,1.75
2023-05-19T12:42:53.464Z,2.00
2023-05-19T12:47:07.131Z,1.30
2023-05-19T12:51:20.060Z,1.80
2023-05-19T12:55:39.343Z,1.42
2023-05-19T12:59:51.112Z,1.58
2023-05-19T13:04:05.415Z,1.80
2023-05-19T13:08:24.109Z,1.58
2023-05-19T13:12:35.870Z,1.88
2023-05-19T13:16:47.748Z,1.50
2023-05-19T13:20:59.547Z,1.70
2023-05-19T13:25:11.384Z,1.80
2023-05-19T13:29:23.255Z,1.60
2023-05-19T13:33:35.126Z,1.98
2023-05-19T13:37:46.826Z,1.85
2023-05-19T13:41:58.535Z,2.05
2023-05-19T13:46:10.295Z,1.60
2023-05-19T13:50:22.072Z,1.50
2023-05-19T13:54:34.162Z,1.80
2023-05-19T13:58:45.993Z,1.50
2023-05-19T14:02:57.831Z,1.30
2023-05-19T14:07:10.523Z,1.73
2023-05-19T14:11:22.748Z,2.25
2023-05-19T14:15:37.812Z,2.00
2023-05-19T14:19:49.912Z,1.55
2023-05-19T14:24:01.718Z,1.90
2023-05-19T14:28:13.402Z,1.60
2023-05-19T14:32:26.359Z,1.33
2023-05-19T14:36:40.378Z,1.80
2023-05-19T14:40:52.271Z,1.70
2023-05-19T14:45:04.159Z,1.88
2023-05-19T14:49:15.875Z,1.58
2023-05-19T14:53:27.668Z,1.92
2023-05-19T14:57:39.471Z,1.90
2023-05-19T15:01:51.344Z,1.65
2023-05-19T15:06:03.417Z,1.60
2023-05-19T15:10:15.212Z,1.42
2023-05-19T15:14:27.898Z,1.60
2023-05-19T15:18:41.186Z,1.73
2023-05-19T15:22:53.042Z,1.95
2023-05-19T15:27:08.601Z,1.70
2023-05-19T15:31:20.413Z,1.48
2023-05-19T15:35:32.149Z,1.85
2023-05-19T15:39:43.979Z,1.63
2023-05-19T15:43:55.981Z,1.70
2023-05-19T15:48:08.131Z,1.90
2023-05-19T15:52:20.025Z,1.65
2023-05-19T15:56:31.724Z,2.15
2023-05-19T16:00:44.038Z,1.88
2023-05-19T16:04:56.018Z,2.05
2023-05-19T16:09:07.726Z,2.00
2023-05-19T16:13:19.474Z,2.40
2023-05-19T16:17:31.287Z,1.98
2023-05-19T16:21:42.998Z,2.10
2023-05-19T16:25:55.133Z,1.70
2023-05-19T16:30:07.734Z,1.40
2023-05-19T16:34:19.442Z,3.00
2023-05-19T16:38:31.276Z,2.30
2023-05-19T16:42:42.965Z,1.70
2023-05-19T16:46:54.652Z,1.58
2023-05-19T16:51:06.454Z,1.70
2023-05-19T16:55:20.013Z,1.50
2023-05-19T16:59:31.717Z,1.63
2023-05-19T17:03:43.574Z,1.90
2023-05-19T17:07:55.543Z,1.65
2023-05-19T17:12:07.812Z,1.52
2023-05-19T17:16:19.594Z,1.80
2023-05-19T17:20:31.755Z,1.92
2023-05-19T17:24:43.697Z,1.50
2023-05-19T17:28:55.548Z,1.58
2023-05-19T17:33:07.321Z,1.63
2023-05-19T17:37:23.480Z,1.58
2023-05-19T17:41:35.260Z,1.77
2023-05-19T17:45:47.264Z,1.90
2023-05-19T17:49:58.953Z,1.50
2023-05-19T17:54:11.233Z,1.60
2023-05-19T17:58:23.146Z,1.42
2023-05-19T18:02:35.116Z,1.80
2023-05-19T18:06:49.135Z,1.48
2023-05-19T18:11:01.089Z,1.48
2023-05-19T18:15:12.788Z,1.38
2023-05-19T18:19:24.612Z,1.60
2023-05-19T18:23:36.383Z,1.70
2023-05-19T18:27:48.150Z,1.30
2023-05-19T18:31:59.924Z,1.45
2023-05-19T18:36:15.388Z,1.80
2023-05-19T18:40:27.085Z,1.48
2023-05-19T18:44:38.893Z,1.30
2023-05-19T18:48:50.741Z,1.55
2023-05-19T18:53:02.538Z,1.48
2023-05-19T18:57:15.156Z,1.70
2023-05-19T19:01:26.952Z,1.33
2023-05-19T19:05:38.736Z,1.75
2023-05-19T19:09:52.784Z,1.90
2023-05-19T19:14:04.548Z,1.77
2023-05-19T19:18:16.271Z,2.25
2023-05-19T19:22:30.935Z,1.90
2023-05-19T19:26:42.678Z,1.77
2023-05-19T19:30:54.550Z,2.00
2023-05-19T19:35:06.415Z,1.50
2023-05-19T19:39:18.140Z,1.45
2023-05-19T19:43:32.113Z,1.70
2023-05-19T19:47:44.046Z,2.20
2023-05-19T19:51:55.935Z,2.17
2023-05-19T19:56:07.730Z,1.63
2023-05-19T20:00:19.499Z,1.50
2023-05-19T20:04:32.639Z,1.50
2023-05-19T20:08:44.464Z,1.50
2023-05-19T20:12:56.324Z,1.73
2023-05-19T20:17:08.075Z,1.80
2023-05-19T20:21:19.745Z,1.40
2023-05-19T20:25:31.757Z,1.20
2023-05-19T20:29:43.913Z,1.42
2023-05-19T20:33:55.730Z,1.52
2023-05-19T20:38:07.485Z,1.42
2023-05-19T20:42:19.183Z,1.10
2023-05-19T20:46:30.982Z,1.63
2023-05-19T20:50:42.748Z,1.38
2023-05-19T20:54:54.507Z,1.60
2023-05-19T20:59:06.262Z,1.35
2023-05-19T21:03:18.192Z,1.50
2023-05-19T21:07:30.118Z,1.40
2023-05-19T21:11:41.848Z,1.67
2023-05-19T21:15:53.554Z,1.52
2023-05-19T21:20:05.942Z,1.75
2023-05-19T21:24:17.659Z,1.73
2023-05-19T21:28:29.359Z,1.80
2023-05-19T21:32:41.285Z,1.90
2023-05-19T21:36:53.051Z,1.90
2023-05-19T21:41:04.744Z,2.00
2023-05-19T21:45:16.534Z,1.98
2023-05-19T21:49:28.476Z,1.90
2023-05-19T21:53:40.285Z,1.88
2023-05-19T21:57:52.223Z,2.03
2023-05-19T22:02:04.664Z,2.17
2023-05-19T22:06:16.348Z,2.25
2023-05-19T22:10:28.063Z,2.35
2023-05-19T22:14:39.796Z,2.20
2023-05-19T22:18:51.739Z,2.15
2023-05-19T22:23:04.047Z,2.20
2023-05-19T22:27:15.948Z,2.15
2023-05-19T22:31:29.348Z,2.28
2023-05-19T22:35:41.896Z,2.05
2023-05-19T22:39:53.595Z,2.22
2023-05-19T22:44:05.314Z,2.13
2023-05-19T22:48:17.142Z,2.30
2023-05-19T22:52:28.909Z,2.20
2023-05-19T22:56:44.321Z,2.08
2023-05-19T23:00:57.268Z,2.47
2023-05-19T23:05:09.260Z,2.20
2023-05-19T23:09:21.867Z,2.22
2023-05-19T23:13:33.611Z,2.17
2023-05-19T23:17:45.455Z,2.65
2023-05-19T23:21:57.408Z,2.05
2023-05-19T23:26:09.245Z,2.30
2023-05-19T23:30:20.949Z,1.95
2023-05-19T23:34:32.688Z,2.35
2023-05-19T23:38:44.487Z,2.00
2023-05-19T23:42:56.269Z,2.83
2023-05-19T23:47:08.157Z,2.55
2023-05-19T23:51:19.955Z,2.15
2023-05-19T23:55:31.840Z,2.38
2023-05-19T23:59:43.802Z,2.40
